Terminal Aerodrome Forecast
Issued by NWS Blacksburg, VA

Current Version | Previous Version | Text Only | Print | Product List | Glossary Off
Versions: 1 2 3 4 5 6 7 8 9 10 11 12 13 14 15 16 17 18 19 20 21 22 23 24 25 26 27 28 29 30 31 32 33 34 35 36 37 38 39 40 41 42 43 44 45 46

000
FTUS41 KRNK 261120
TAFBLF
TAF
KBLF 261120Z 2612/2712 08004KT 3SM -SN BR BKN005 OVC025
      TEMPO 2612/2614 6SM -SN OVC015
     FM261400 12005KT P6SM -SN OVC007
     FM261800 26005KT P6SM -SHSN SCT005 OVC015
     FM270400 29006KT 4SM BR BKN004 OVC012=

USA.gov is the U.S. government's official web portal to all federal, state and local government web resources and services.